Time;durP1;ratioP1;P1;durP2;ratioP2;P2;SDS_P1;SDS_P2;PMS_P1;PMS_P2;Temp;Humidity;BMP_temperature;BMP_pressure;BME280_temperature;BME280_humidity;BME280_pressure;Samples;Min_cycle;Max_cycle;Signal;HPM_P1;HPM_P2
2021/08/20 00:01:56;;;;;;;12.57;2.57;;;16.80;50.50;;;;;;4803399;28;20199;-83
2021/08/20 00:04:18;;;;;;;10.83;2.17;;;;;;;;;;4803825;28;21136;-81
2021/08/20 00:06:41;;;;;;;8.23;1.73;;;;;;;;;;4807775;28;20290;-83
2021/08/20 00:09:04;;;;;;;12.77;2.70;;;;;;;;;;4829972;28;20213;-80
2021/08/20 00:11:27;;;;;;;8.03;1.77;;;;;;;;;;4792314;28;20462;-85
2021/08/20 00:13:51;;;;;;;9.63;2.00;;;;;;;;;;4807164;28;20228;-82
2021/08/20 00:16:14;;;;;;;8.80;1.87;;;;;;;;;;4785975;28;20276;-81
2021/08/20 00:18:38;;;;;;;7.43;1.63;;;16.60;49.70;;;;;;4811807;28;20218;-83
2021/08/20 00:21:01;;;;;;;8.27;1.73;;;;;;;;;;4800337;28;20260;-80
2021/08/20 00:23:24;;;;;;;9.63;2.03;;;;;;;;;;4782470;28;20249;-85
2021/08/20 00:25:46;;;;;;;10.93;2.53;;;;;;;;;;4808956;28;20211;-84
2021/08/20 00:28:09;;;;;;;10.47;2.43;;;;;;;;;;4801716;28;20579;-81
2021/08/20 00:30:32;;;;;;;10.70;2.50;;;;;;;;;;4815775;28;20852;-80
2021/08/20 00:32:54;;;;;;;9.97;2.30;;;;;;;;;;4814836;28;20649;-82
2021/08/20 00:35:18;;;;;;;9.60;2.23;;;16.50;49.30;;;;;;4808818;28;20203;-81
2021/08/20 00:37:41;;;;;;;8.00;1.73;;;;;;;;;;4792174;28;20188;-81
2021/08/20 00:40:05;;;;;;;7.17;1.67;;;16.60;49.40;;;;;;4808987;28;20184;-83
2021/08/20 00:42:28;;;;;;;9.00;1.93;;;;;;;;;;4792400;28;20200;-85
2021/08/20 00:44:51;;;;;;;18.83;3.97;;;;;;;;;;4813189;28;20235;-83
2021/08/20 00:47:14;;;;;;;9.93;1.97;;;;;;;;;;4805174;28;20196;-82
2021/08/20 00:49:37;;;;;;;10.37;2.07;;;;;;;;;;4807772;28;20383;-75
2021/08/20 00:52:02;;;;;;;11.80;2.30;;;16.70;50.30;;;;;;4806736;28;20193;-77
2021/08/20 00:54:25;;;;;;;13.00;2.33;;;;;;;;;;4808355;28;20548;-75
2021/08/20 00:56:49;;;;;;;14.83;2.60;;;16.70;50.20;;;;;;4814900;28;20229;-76
2021/08/20 00:59:13;;;;;;;10.57;1.90;;;16.70;50.20;;;;;;4808512;28;20207;-75
2021/08/20 01:01:36;;;;;;;11.33;2.00;;;;;;;;;;4805208;28;20235;-76
2021/08/20 01:03:59;;;;;;;8.37;1.50;;;;;;;;;;4810140;28;20778;-75
2021/08/20 01:06:22;;;;;;;11.63;2.30;;;;;;;;;;4808648;28;20228;-75
2021/08/20 01:08:47;;;;;;;13.47;2.53;;;16.70;50.20;;;;;;4808943;28;20195;-76
2021/08/20 01:11:12;;;;;;;10.17;2.00;;;16.70;50.20;;;;;;4808948;28;20227;-76
2021/08/20 01:13:36;;;;;;;8.20;1.63;;;16.70;50.10;;;;;;4799565;28;20757;-75
2021/08/20 01:16:01;;;;;;;10.00;1.83;;;16.70;50.10;;;;;;4814414;28;20333;-75
2021/08/20 01:18:25;;;;;;;12.00;2.20;;;16.70;50.10;;;;;;4806957;28;20701;-76
2021/08/20 01:20:52;;;;;;;13.80;2.57;;;;;;;;;;4800448;28;20519;-75
2021/08/20 01:23:15;;;;;;;10.03;1.97;;;;;;;;;;4800552;28;20220;-75
2021/08/20 01:25:40;;;;;;;11.90;2.20;;;16.70;49.70;;;;;;4806211;28;20224;-76
2021/08/20 01:28:07;;;;;;;9.17;1.73;;;16.70;49.60;;;;;;4813612;28;20620;-83
2021/08/20 01:30:32;;;;;;;11.33;2.13;;;;;;;;;;4807508;28;20422;-76
2021/08/20 01:32:55;;;;;;;11.50;2.17;;;;;;;;;;4806726;28;20312;-75
2021/08/20 01:35:18;;;;;;;10.43;1.97;;;;;;;;;;4802406;28;20204;-85
2021/08/20 01:37:40;;;;;;;7.63;1.53;;;;;;;;;;4791609;28;20291;-75
2021/08/20 01:40:04;;;;;;;8.97;1.60;;;16.60;49.30;;;;;;4797446;28;20196;-80
2021/08/20 01:42:28;;;;;;;12.23;2.10;;;16.70;49.50;;;;;;4798239;28;20196;-76
2021/08/20 01:44:51;;;;;;;19.63;3.43;;;;;;;;;;4804579;28;20677;-78
2021/08/20 01:47:15;;;;;;;10.03;1.77;;;;;;;;;;4805496;28;20705;-82
2021/08/20 01:49:38;;;;;;;10.83;1.90;;;16.50;49.10;;;;;;4790477;28;20584;-86
2021/08/20 01:52:01;;;;;;;8.50;1.47;;;;;;;;;;4778030;28;20205;-85
2021/08/20 01:54:28;;;;;;;15.03;2.57;;;;;;;;;;4813768;28;20203;-85
2021/08/20 01:56:50;;;;;;;14.27;2.43;;;;;;;;;;4811103;28;20245;-86
2021/08/20 01:59:15;;;;;;;11.73;2.03;;;16.50;48.80;;;;;;4791951;28;20200;-82
2021/08/20 02:01:38;;;;;;;9.20;1.50;;;;;;;;;;4783637;28;20558;-86
2021/08/20 02:04:02;;;;;;;10.97;1.67;;;16.50;48.60;;;;;;4805812;28;20199;-84
2021/08/20 02:06:27;;;;;;;13.93;2.73;;;;;;;;;;4798317;28;20628;-84
2021/08/20 02:08:50;;;;;;;18.37;3.00;;;;;;;;;;4808446;28;20661;-86
2021/08/20 02:11:13;;;;;;;17.23;2.57;;;;;;;;;;4803499;28;20423;-84
2021/08/20 02:13:43;;;;;;;17.00;2.63;;;;;;;;;;4782975;28;20545;-87
2021/08/20 02:16:08;;;;;;;14.97;2.30;;;16.40;48.30;;;;;;4813239;28;20242;-86
2021/08/20 02:18:31;;;;;;;14.97;2.20;;;;;;;;;;4806205;28;20215;-79
2021/08/20 02:20:55;;;;;;;17.57;2.70;;;;;;;;;;4794039;28;20222;-83
2021/08/20 02:23:19;;;;;;;13.03;2.00;;;;;;;;;;4805576;28;20228;-80
2021/08/20 02:25:45;;;;;;;20.37;2.93;;;;;;;;;;4807898;28;20250;-86
2021/08/20 02:28:09;;;;;;;15.77;2.40;;;;;;;;;;4811562;28;20211;-85
2021/08/20 02:30:32;;;;;;;20.30;2.97;;;;;;;;;;4807005;28;20305;-82
2021/08/20 02:32:56;;;;;;;20.10;2.83;;;16.30;47.80;;;;;;4801847;28;20646;-85
2021/08/20 02:35:19;;;;;;;16.97;2.43;;;;;;;;;;4801750;28;20203;-78
2021/08/20 02:37:43;;;;;;;16.57;2.47;;;;;;;;;;4801315;28;20558;-85
2021/08/20 02:40:09;;;;;;;11.33;1.87;;;16.30;47.70;;;;;;4810769;28;20227;-82
2021/08/20 02:42:41;;;;;;;12.83;2.13;;;;;;;;;;4804067;28;20195;-83
2021/08/20 02:45:06;;;;;;;10.33;1.73;;;16.00;46.80;;;;;;4799712;28;20195;-85
2021/08/20 02:47:29;;;;;;;11.63;2.20;;;;;;;;;;4819854;28;20223;-85
2021/08/20 02:49:54;;;;;;;11.40;2.13;;;16.20;47.40;;;;;;4798068;28;20196;-86
2021/08/20 02:52:17;;;;;;;11.57;2.10;;;;;;;;;;4811944;28;20203;-84
2021/08/20 02:54:42;;;;;;;9.37;1.77;;;;;;;;;;4813883;28;20249;-82
2021/08/20 02:57:05;;;;;;;7.67;1.57;;;16.40;47.40;;;;;;4812183;28;20235;-83
2021/08/20 02:59:38;;;;;;;11.83;2.23;;;16.30;47.30;;;;;;4810687;28;20199;-87
2021/08/20 03:02:02;;;;;;;8.93;1.73;;;;;;;;;;4804718;28;20744;-85
2021/08/20 03:04:25;;;;;;;10.53;2.00;;;;;;;;;;4814231;28;20195;-85
2021/08/20 03:06:49;;;;;;;12.07;2.37;;;16.20;47.00;;;;;;4789519;28;20295;-86
2021/08/20 03:09:35;;;;;;;6.63;1.37;;;;;;;;;;4806781;28;20315;-85
2021/08/20 03:11:58;;;;;;;8.57;1.70;;;;;;;;;;4804599;28;20258;-86
2021/08/20 03:14:22;;;;;;;9.83;1.97;;;;;;;;;;4828580;28;20298;-86
2021/08/20 03:16:50;;;;;;;11.20;2.27;;;;;;;;;;4813789;28;20258;-88
2021/08/20 03:19:13;;;;;;;8.57;1.80;;;;;;;;;;4801710;28;20251;-83
2021/08/20 03:21:40;;;;;;;8.53;1.80;;;;;;;;;;4810725;28;20880;-84
2021/08/20 03:24:05;;;;;;;9.47;1.90;;;16.20;46.70;;;;;;4796149;28;20252;-87
2021/08/20 03:26:30;;;;;;;9.47;2.00;;;;;;;;;;4809423;28;20712;-87
2021/08/20 03:28:57;;;;;;;10.17;2.20;;;;;;;;;;4811709;28;20922;-88
2021/08/20 03:31:20;;;;;;;9.67;2.07;;;;;;;;;;4806422;28;20208;-80
2021/08/20 03:33:44;;;;;;;10.47;2.13;;;;;;;;;;4813088;28;20709;-75
2021/08/20 03:36:13;;;;;;;8.33;1.67;;;;;;;;;;4810473;28;20250;-80
2021/08/20 03:38:36;;;;;;;8.17;1.77;;;;;;;;;;4807608;28;20203;-77
2021/08/20 03:41:05;;;;;;;6.70;1.53;;;16.30;46.90;;;;;;4815393;28;20242;-75
2021/08/20 03:43:39;;;;;;;8.47;1.80;;;;;;;;;;4813463;28;20258;-76
2021/08/20 03:46:09;;;;;;;6.63;1.50;;;;;;;;;;4813136;28;20203;-75
2021/08/20 03:48:34;;;;;;;5.27;1.23;;;;;;;;;;4804149;28;20728;-75
2021/08/20 03:50:58;;;;;;;8.20;1.80;;;;;;;;;;4812310;28;20200;-77
2021/08/20 03:53:21;;;;;;;6.97;1.63;;;;;;;;;;4793633;28;20205;-76
2021/08/20 03:55:44;;;;;;;9.33;2.03;;;;;;;;;;4812311;28;20204;-78
2021/08/20 03:58:27;;;;;;;9.43;2.07;;;16.20;47.50;;;;;;4811019;28;20216;-75
2021/08/20 04:00:54;;;;;;;8.80;1.97;;;;;;;;;;4791923;28;20298;-74
2021/08/20 04:03:19;;;;;;;7.33;1.63;;;;;;;;;;4800082;28;20681;-76
2021/08/20 04:05:42;;;;;;;7.97;1.80;;;16.20;47.10;;;;;;4807682;28;20204;-76
2021/08/20 04:08:09;;;;;;;7.53;1.70;;;;;;;;;;4801181;28;20224;-76
2021/08/20 04:10:51;;;;;;;11.00;2.40;;;;;;;;;;4806525;28;20227;-76
2021/08/20 04:13:35;;;;;;;6.90;1.63;;;16.10;46.80;;;;;;4794111;28;20195;-82
2021/08/20 04:15:59;;;;;;;7.30;1.70;;;;;;;;;;4825302;28;20237;-76
2021/08/20 04:18:21;;;;;;;8.23;1.70;;;;;;;;;;4807811;28;20212;-75
2021/08/20 04:20:44;;;;;;;7.77;1.67;;;;;;;;;;4813227;28;20254;-75
2021/08/20 04:23:07;;;;;;;4.03;1.00;;;;;;;;;;4807748;28;20219;-75
2021/08/20 04:25:32;;;;;;;5.90;1.33;;;;;;;;;;4820777;28;20254;-78
2021/08/20 04:28:20;;;;;;;4.43;1.13;;;;;;;;;;4786857;28;20231;-75
2021/08/20 04:31:10;;;;;;;2.50;0.60;;;16.60;47.90;;;;;;4815301;28;20207;-78
2021/08/20 04:33:52;;;;;;;5.97;1.33;;;;;;;;;;4808145;28;20222;-75
2021/08/20 04:36:33;;;;;;;6.33;1.50;;;;;;;;;;4818089;28;20253;-84
2021/08/20 04:39:09;;;;;;;7.03;1.70;;;;;;;;;;4812106;28;20207;-80
2021/08/20 04:41:50;;;;;;;8.07;1.80;;;;;;;;;;4809094;28;20234;-75
2021/08/20 04:44:23;;;;;;;8.60;1.97;;;;;;;;;;4808034;28;20630;-75
2021/08/20 04:47:13;;;;;;;6.47;1.47;;;16.70;48.20;;;;;;4794978;28;20223;-76
2021/08/20 04:49:53;;;;;;;8.63;2.00;;;;;;;;;;4808641;28;20203;-75
2021/08/20 04:52:35;;;;;;;5.93;1.53;;;16.70;48.10;;;;;;4812025;28;20187;-78
2021/08/20 04:55:33;;;;;;;7.17;1.73;;;;;;;;;;4764903;29;20201;-87
2021/08/20 04:57:56;;;;;;;7.43;1.80;;;;;;;;;;4792909;28;20200;-75
2021/08/20 05:00:19;;;;;;;7.77;1.93;;;;;;;;;;4813093;28;20191;-76
2021/08/20 05:02:43;;;;;;;6.67;1.53;;;16.90;48.20;;;;;;4799904;28;20192;-76
2021/08/20 05:05:06;;;;;;;6.87;1.67;;;17.00;48.40;;;;;;4807981;28;20189;-75
2021/08/20 05:07:29;;;;;;;9.20;2.10;;;;;;;;;;4814198;28;20227;-75
2021/08/20 05:09:52;;;;;;;8.63;2.07;;;;;;;;;;4802902;28;20245;-80
2021/08/20 05:12:14;;;;;;;6.53;1.57;;;;;;;;;;4802492;28;20275;-75
2021/08/20 05:14:38;;;;;;;5.40;1.37;;;;;;;;;;4811098;28;20601;-83
2021/08/20 05:17:00;;;;;;;6.50;1.53;;;;;;;;;;4809572;28;20649;-75
2021/08/20 05:19:24;;;;;;;6.67;1.70;;;17.10;48.50;;;;;;4802916;28;20243;-87
2021/08/20 05:21:47;;;;;;;8.20;1.90;;;;;;;;;;4809770;28;20204;-87
2021/08/20 05:24:10;;;;;;;6.50;1.60;;;;;;;;;;4814906;28;20192;-87
2021/08/20 05:26:33;;;;;;;6.30;1.50;;;;;;;;;;4809560;28;20187;-86
2021/08/20 05:28:55;;;;;;;13.50;3.27;;;;;;;;;;4810465;28;20345;-82
2021/08/20 05:31:18;;;;;;;6.27;1.57;;;;;;;;;;4801364;28;20231;-88
2021/08/20 05:33:41;;;;;;;4.13;1.03;;;;;;;;;;4807268;28;20721;-81
2021/08/20 05:36:05;;;;;;;4.87;1.30;;;17.40;48.90;;;;;;4798031;28;20196;-88
2021/08/20 05:38:28;;;;;;;7.07;1.63;;;;;;;;;;4802371;28;20250;-83
2021/08/20 05:40:51;;;;;;;9.43;2.30;;;;;;;;;;4807133;28;20204;-81
2021/08/20 05:43:14;;;;;;;6.10;1.50;;;;;;;;;;4801875;28;20244;-85
2021/08/20 05:45:37;;;;;;;6.00;1.50;;;;;;;;;;4799713;28;20681;-86
2021/08/20 05:48:01;;;;;;;9.73;2.20;;;;;;;;;;4805599;28;20207;-86
2021/08/20 05:50:23;;;;;;;10.57;2.47;;;;;;;;;;4811761;28;20195;-82
2021/08/20 05:52:47;;;;;;;6.60;1.60;;;17.60;48.60;;;;;;4782944;28;20683;-86
2021/08/20 05:55:12;;;;;;;4.87;1.20;;;17.70;48.90;;;;;;4801047;28;20243;-85
2021/08/20 05:57:35;;;;;;;5.30;1.20;;;;;;;;;;4800819;28;20250;-84
2021/08/20 05:59:58;;;;;;;10.17;2.30;;;;;;;;;;4800829;28;20188;-84
2021/08/20 06:02:21;;;;;;;6.30;1.33;;;;;;;;;;4798160;28;20244;-82
2021/08/20 06:04:43;;;;;;;6.77;1.57;;;;;;;;;;4798598;28;20295;-82
2021/08/20 06:07:07;;;;;;;6.27;1.43;;;;;;;;;;4799292;28;20212;-80
2021/08/20 06:09:31;;;;;;;7.40;1.63;;;18.00;49.20;;;;;;4798938;28;20236;-80
2021/08/20 06:11:55;;;;;;;11.10;2.47;;;;;;;;;;4829040;28;20223;-83
2021/08/20 06:14:18;;;;;;;6.57;1.47;;;;;;;;;;4836294;28;20203;-76
2021/08/20 06:16:41;;;;;;;7.07;1.60;;;;;;;;;;4837138;28;20187;-74
2021/08/20 06:19:03;;;;;;;7.27;1.60;;;;;;;;;;4811091;28;20563;-75
2021/08/20 06:21:26;;;;;;;9.57;2.07;;;;;;;;;;4811307;28;20203;-76
2021/08/20 06:23:49;;;;;;;8.57;2.00;;;;;;;;;;4822607;28;20556;-76
2021/08/20 06:26:13;;;;;;;6.10;1.43;;;18.80;50.20;;;;;;4835974;28;20187;-76
2021/08/20 06:28:35;;;;;;;7.23;1.57;;;;;;;;;;4811617;28;20318;-78
2021/08/20 06:31:03;;;;;;;10.17;2.33;;;;;;;;;;4783578;28;20245;-78
2021/08/20 06:33:26;;;;;;;9.77;2.17;;;;;;;;;;4815397;28;20536;-75
2021/08/20 06:35:49;;;;;;;6.70;1.47;;;;;;;;;;4814194;28;20188;-76
2021/08/20 06:38:12;;;;;;;5.57;1.27;;;;;;;;;;4814297;28;20208;-75
2021/08/20 06:40:35;;;;;;;7.60;1.70;;;;;;;;;;4807742;28;20228;-76
2021/08/20 06:42:59;;;;;;;9.93;2.30;;;19.60;50.90;;;;;;4829321;28;20183;-81
2021/08/20 06:45:21;;;;;;;7.20;1.60;;;;;;;;;;4825348;28;20195;-79
2021/08/20 06:47:45;;;;;;;5.40;1.30;;;;;;;;;;4808724;28;20205;-78
2021/08/20 06:50:09;;;;;;;6.40;1.43;;;19.90;51.50;;;;;;4827068;28;20192;-76
2021/08/20 06:52:32;;;;;;;8.03;1.70;;;;;;;;;;4825564;28;20620;-78
2021/08/20 06:54:58;;;;;;;10.17;2.33;;;20.20;52.00;;;;;;4780739;28;20245;-85
2021/08/20 06:57:21;;;;;;;8.93;1.90;;;;;;;;;;4793369;28;20720;-79
2021/08/20 06:59:45;;;;;;;6.93;1.50;;;20.40;52.30;;;;;;4825604;28;20217;-76
2021/08/20 07:02:08;;;;;;;6.60;1.43;;;;;;;;;;4807200;28;20213;-76
2021/08/20 07:04:31;;;;;;;8.57;1.90;;;;;;;;;;4806803;28;20198;-77
2021/08/20 07:06:55;;;;;;;12.07;2.60;;;20.80;52.80;;;;;;4808368;28;20243;-83
2021/08/20 07:09:18;;;;;;;8.67;1.97;;;;;;;;;;4825333;28;20243;-89
2021/08/20 07:11:40;;;;;;;8.27;1.73;;;;;;;;;;4821607;28;20223;-89
2021/08/20 07:14:03;;;;;;;7.17;1.53;;;;;;;;;;4823012;28;20738;-82
2021/08/20 07:16:27;;;;;;;7.23;1.60;;;21.00;53.20;;;;;;4796542;28;20250;-79
2021/08/20 07:18:50;;;;;;;9.20;2.00;;;;;;;;;;4793835;28;20652;-73
2021/08/20 07:21:13;;;;;;;8.17;1.73;;;;;;;;;;4815341;28;20228;-88
2021/08/20 07:23:36;;;;;;;6.00;1.30;;;;;;;;;;4826202;28;20197;-89
2021/08/20 07:26:00;;;;;;;7.60;1.63;;;21.40;53.60;;;;;;4817393;28;20185;-87
2021/08/20 07:28:23;;;;;;;8.80;1.90;;;;;;;;;;4835259;28;20673;-92
2021/08/20 07:30:45;;;;;;;8.53;1.80;;;;;;;;;;4832183;28;20201;-87
2021/08/20 07:33:09;;;;;;;8.20;1.73;;;21.80;53.70;;;;;;4841024;28;20202;-90
2021/08/20 07:35:32;;;;;;;5.80;1.30;;;;;;;;;;4831527;28;20236;-88
2021/08/20 07:37:55;;;;;;;10.90;2.33;;;;;;;;;;4803290;28;20209;-90
2021/08/20 07:40:18;;;;;;;9.50;1.97;;;;;;;;;;4821940;28;20662;-79
2021/08/20 07:42:40;;;;;;;7.23;1.57;;;;;;;;;;4814015;28;20199;-83
2021/08/20 07:45:04;;;;;;;12.63;2.57;;;22.30;54.40;;;;;;4817726;28;20202;-78
2021/08/20 07:47:27;;;;;;;8.83;1.87;;;;;;;;;;4829114;28;20194;-75
2021/08/20 07:49:51;;;;;;;12.20;2.53;;;22.50;54.50;;;;;;4828026;28;20222;-74
2021/08/20 07:52:14;;;;;;;7.47;1.67;;;;;;;;;;4810008;28;20239;-86
2021/08/20 07:54:36;;;;;;;7.30;1.53;;;;;;;;;;4824925;28;20691;-73
2021/08/20 07:56:59;;;;;;;9.70;2.10;;;;;;;;;;4811593;28;20184;-86
2021/08/20 07:59:22;;;;;;;7.53;1.53;;;;;;;;;;4829061;28;20234;-86
2021/08/20 08:01:45;;;;;;;8.47;1.90;;;;;;;;;;4822200;28;20500;-74
2021/08/20 08:04:08;;;;;;;7.73;1.67;;;;;;;;;;4814737;28;20206;-75
2021/08/20 08:06:32;;;;;;;9.80;2.17;;;23.40;55.60;;;;;;4817608;28;20250;-74
2021/08/20 08:08:55;;;;;;;14.43;3.33;;;;;;;;;;4830546;28;20208;-74
2021/08/20 08:11:18;;;;;;;8.73;2.00;;;;;;;;;;4825771;28;20641;-86
2021/08/20 08:13:41;;;;;;;7.13;1.63;;;;;;;;;;4827115;28;20261;-87
2021/08/20 08:16:03;;;;;;;9.57;2.27;;;;;;;;;;4828412;28;20260;-84
2021/08/20 08:18:26;;;;;;;6.43;1.50;;;;;;;;;;4829444;28;20219;-88
2021/08/20 08:20:49;;;;;;;7.60;1.73;;;24.20;56.80;;;;;;4803627;28;20656;-84
2021/08/20 08:23:13;;;;;;;9.40;2.10;;;24.20;57.30;;;;;;4802123;28;20229;-84
2021/08/20 08:25:36;;;;;;;6.87;1.67;;;;;;;;;;4803298;28;20207;-84
2021/08/20 08:28:00;;;;;;;7.13;1.87;;;24.70;57.40;;;;;;4820151;28;20230;-90
2021/08/20 08:30:23;;;;;;;8.87;2.37;;;;;;;;;;4802747;28;20217;-80
2021/08/20 08:32:45;;;;;;;7.60;1.73;;;;;;;;;;4810163;28;20232;-82
2021/08/20 08:35:09;;;;;;;11.97;2.93;;;24.90;58.10;;;;;;4818691;28;20298;-86
2021/08/20 08:37:32;;;;;;;6.37;1.63;;;;;;;;;;4813170;28;20668;-81
2021/08/20 08:39:56;;;;;;;9.07;2.37;;;24.90;58.00;;;;;;4811183;28;20264;-88
2021/08/20 08:42:18;;;;;;;5.17;1.70;;;;;;;;;;4802739;28;20205;-77
2021/08/20 08:44:42;;;;;;;3.60;1.30;;;;;;;;;;4802686;28;20585;-80
2021/08/20 08:47:06;;;;;;;6.50;1.93;;;25.70;43.90;;;;;;4804437;28;20354;-81
2021/08/20 08:49:29;;;;;;;5.37;1.70;;;;;;;;;;4850034;28;20267;-83
2021/08/20 08:51:52;;;;;;;11.40;2.87;;;;;;;;;;4840006;28;20204;-84
2021/08/20 08:54:15;;;;;;;8.27;1.80;;;;;;;;;;4838382;28;20178;-86
2021/08/20 08:56:42;;;;;;;11.57;2.27;;;26.30;44.70;;;;;;4828298;28;20187;-87
2021/08/20 08:59:05;;;;;;;3.80;0.90;;;;;;;;;;4844547;28;20189;-83
2021/08/20 09:01:32;;;;;;;7.73;1.53;;;26.00;44.40;;;;;;4820437;28;20719;-86
2021/08/20 09:04:09;;;;;;;14.10;2.50;;;26.00;44.50;;;;;;4820670;28;20653;-85
2021/08/20 09:06:37;;;;;;;16.27;2.87;;;25.90;44.40;;;;;;4819142;28;20206;-82
2021/08/20 09:09:05;;;;;;;12.83;2.33;;;25.80;44.60;;;;;;4819899;28;20692;-86
2021/08/20 09:11:28;;;;;;;9.37;1.80;;;;;;;;;;4828175;28;20223;-84
2021/08/20 09:13:52;;;;;;;14.53;2.67;;;25.70;44.60;;;;;;4829859;28;20253;-86
2021/08/20 09:16:15;;;;;;;11.57;2.07;;;;;;;;;;4818286;28;20764;-81
2021/08/20 09:18:38;;;;;;;7.50;1.40;;;;;;;;;;4801790;28;20603;-82
2021/08/20 09:21:01;;;;;;;17.97;2.97;;;;;;;;;;4817879;28;20569;-80
2021/08/20 09:23:26;;;;;;;8.67;1.50;;;25.90;44.80;;;;;;4829517;28;20242;-88
2021/08/20 09:25:49;;;;;;;11.17;1.80;;;;;;;;;;4831790;28;20185;-79
2021/08/20 09:28:17;;;;;;;17.03;2.63;;;26.70;45.20;;;;;;4826057;28;20204;-79
2021/08/20 09:30:41;;;;;;;20.90;2.97;;;27.10;45.30;;;;;;4816679;28;20652;-84
2021/08/20 09:33:11;;;;;;;18.73;2.40;;;27.60;45.60;;;;;;4803891;28;20544;-81
2021/08/20 09:35:36;;;;;;;21.73;2.77;;;28.20;46.00;;;;;;4825833;28;20304;-79
2021/08/20 09:38:07;;;;;;;28.10;3.37;;;28.30;46.20;;;;;;4810890;28;20304;-85
2021/08/20 09:40:30;;;;;;;30.63;3.90;;;;;;;;;;4808199;28;20210;-78
2021/08/20 09:42:53;;;;;;;29.13;3.47;;;;;;;;;;4810719;28;20194;-84
2021/08/20 09:45:21;;;;;;;53.37;6.33;;;29.50;47.00;;;;;;4826656;28;20268;-78
2021/08/20 09:47:49;;;;;;;26.50;3.60;;;29.70;47.20;;;;;;4829079;28;20555;-74
2021/08/20 09:50:12;;;;;;;25.33;3.17;;;;;;;;;;4796659;28;20649;-85
2021/08/20 09:52:35;;;;;;;17.80;2.30;;;;;;;;;;4812990;28;20196;-86
2021/08/20 09:54:58;;;;;;;23.33;3.00;;;;;;;;;;4810851;28;20203;-89
2021/08/20 09:57:24;;;;;;;18.20;2.40;;;30.60;47.80;;;;;;4826571;28;20197;-87
2021/08/20 09:59:48;;;;;;;17.13;2.33;;;30.60;47.80;;;;;;4830425;28;20248;-83
2021/08/20 10:02:17;;;;;;;15.07;2.00;;;30.40;47.80;;;;;;4823990;28;20580;-85
2021/08/20 10:04:41;;;;;;;13.33;1.87;;;30.50;47.80;;;;;;4823304;28;20179;-85
2021/08/20 10:07:05;;;;;;;18.07;2.50;;;30.50;47.80;;;;;;4827178;28;20215;-86
2021/08/20 10:09:30;;;;;;;10.17;1.50;;;30.60;47.90;;;;;;4830350;28;20271;-77
2021/08/20 10:11:54;;;;;;;24.07;3.50;;;30.40;47.90;;;;;;4830973;28;20224;-75
2021/08/20 10:14:17;;;;;;;13.33;1.97;;;;;;;;;;4810334;28;20223;-80
2021/08/20 10:16:41;;;;;;;12.03;1.83;;;30.20;47.90;;;;;;4799266;28;20204;-74
2021/08/20 10:19:06;;;;;;;16.30;2.50;;;30.40;47.90;;;;;;4828025;28;20182;-76
2021/08/20 10:21:32;;;;;;;11.77;1.83;;;30.70;48.00;;;;;;4815485;28;20195;-75
2021/08/20 10:23:55;;;;;;;13.13;2.13;;;;;;;;;;4830916;28;20191;-74
2021/08/20 10:26:18;;;;;;;9.37;1.73;;;;;;;;;;4827947;28;20254;-79
2021/08/20 10:28:41;;;;;;;14.73;2.67;;;31.30;48.40;;;;;;4809284;28;20262;-77
2021/08/20 10:31:04;;;;;;;17.30;3.03;;;31.50;48.50;;;;;;4834294;28;20273;-79
2021/08/20 10:33:31;;;;;;;13.03;2.33;;;31.70;48.50;;;;;;4805779;28;20214;-74
2021/08/20 10:35:55;;;;;;;14.07;2.43;;;31.70;48.60;;;;;;4801553;28;20470;-74
2021/08/20 10:38:27;;;;;;;17.03;2.87;;;32.60;48.70;;;;;;4821223;28;20247;-87
2021/08/20 10:41:07;;;;;;;17.30;3.00;;;32.60;49.00;;;;;;4828481;28;20191;-78
2021/08/20 10:43:49;;;;;;;13.53;2.40;;;33.00;49.30;;;;;;4813674;28;20734;-81
2021/08/20 10:46:50;;;;;;;9.30;1.77;;;33.10;49.20;;;;;;4826352;28;20178;-83
2021/08/20 10:49:21;;;;;;;15.80;2.55;;;34.00;49.60;;;;;;4820241;28;20202;-77
2021/08/20 10:52:02;;;;;;;13.77;2.05;;;34.70;49.90;;;;;;4808921;28;20195;-82
2021/08/20 10:54:58;;;;;;;16.70;2.50;;;35.40;50.00;;;;;;4801688;28;20270;-76
2021/08/20 10:57:57;;;;;;;18.27;2.78;;;36.20;50.50;;;;;;4824448;28;20640;-80
2021/08/20 11:00:25;;;;;;;17.27;2.47;;;36.10;50.70;;;;;;4817861;28;20246;-84
2021/08/20 11:02:48;;;;;;;14.90;2.15;;;36.40;50.70;;;;;;4828763;28;20180;-87
2021/08/20 11:05:14;;;;;;;33.60;4.38;;;37.10;51.00;;;;;;4812019;28;20203;-83
2021/08/20 11:07:46;;;;;;;16.50;2.10;;;37.30;51.10;;;;;;4828631;28;20199;-84
2021/08/20 11:10:33;;;;;;;23.55;3.03;;;37.40;51.30;;;;;;4812054;28;20743;-86
2021/08/20 11:13:02;;;;;;;27.35;3.42;;;37.80;51.30;;;;;;4828534;28;20312;-74
2021/08/20 11:15:44;;;;;;;23.45;2.92;;;37.60;51.30;;;;;;4829276;28;20253;-74
2021/08/20 11:18:08;;;;;;;20.15;2.60;;;37.00;51.00;;;;;;4830525;28;20317;-75
2021/08/20 11:20:37;;;;;;;18.08;2.45;;;36.80;51.00;;;;;;4829133;28;20198;-83
2021/08/20 11:23:17;;;;;;;22.55;3.00;;;36.50;50.90;;;;;;4825636;28;20231;-81
2021/08/20 11:25:41;;;;;;;12.38;1.77;;;37.10;51.10;;;;;;4830006;28;20191;-75
2021/08/20 11:28:07;;;;;;;18.13;2.47;;;37.40;51.30;;;;;;4824900;28;20246;-82
2021/08/20 11:30:35;;;;;;;20.08;2.80;;;36.90;51.10;;;;;;4836586;28;20235;-74
2021/08/20 11:33:25;;;;;;;21.75;2.88;;;37.80;51.30;;;;;;4827332;28;20183;-81
2021/08/20 11:35:49;;;;;;;16.77;2.28;;;38.60;51.60;;;;;;4809853;28;20287;-80
2021/08/20 11:38:12;;;;;;;24.05;3.20;;;;;;;;;;4827858;28;20187;-75
2021/08/20 11:40:47;;;;;;;16.77;2.33;;;38.10;51.60;;;;;;4832981;28;20242;-76
2021/08/20 11:43:12;;;;;;;16.88;2.33;;;37.50;51.20;;;;;;4817748;28;20253;-74
2021/08/20 11:45:35;;;;;;;16.10;2.28;;;37.90;51.40;;;;;;4812840;28;20246;-77
2021/08/20 11:47:59;;;;;;;24.35;3.22;;;37.90;51.40;;;;;;4799954;28;20266;-74
2021/08/20 11:50:22;;;;;;;17.17;2.42;;;;;;;;;;4825448;28;20550;-75
2021/08/20 11:52:48;;;;;;;14.55;2.03;;;36.90;51.10;;;;;;4829543;28;20539;-75
2021/08/20 11:55:16;;;;;;;29.50;4.13;;;36.10;50.70;;;;;;4826698;28;20244;-74
2021/08/20 11:57:39;;;;;;;17.48;2.47;;;;;;;;;;4813091;28;20192;-76
2021/08/20 12:00:04;;;;;;;25.65;3.50;;;34.70;50.30;;;;;;4828204;28;20190;-77
2021/08/20 12:02:28;;;;;;;17.42;2.45;;;;;;;;;;4830259;28;20241;-76
2021/08/20 12:04:51;;;;;;;21.77;3.03;;;;;;;;;;4831198;28;20187;-75
2021/08/20 12:07:14;;;;;;;19.08;2.67;;;;;;;;;;4800655;28;20200;-76
2021/08/20 12:09:37;;;;;;;13.93;1.98;;;;;;;;;;4780300;28;20244;-76
2021/08/20 12:12:00;;;;;;;20.92;2.92;;;;;;;;;;4792138;28;20361;-74
2021/08/20 12:14:24;;;;;;;19.33;2.78;;;31.90;49.30;;;;;;4831238;28;20214;-79
2021/08/20 12:16:49;;;;;;;12.48;1.83;;;31.40;49.10;;;;;;4832073;28;20215;-78
2021/08/20 12:19:17;;;;;;;17.93;2.57;;;30.90;48.80;;;;;;4836459;28;20186;-76
2021/08/20 12:21:40;;;;;;;16.57;2.50;;;;;;;;;;4812811;28;20199;-79
2021/08/20 12:24:05;;;;;;;19.67;2.90;;;30.20;48.60;;;;;;4803205;28;20199;-80
2021/08/20 12:26:28;;;;;;;19.30;2.83;;;;;;;;;;4799071;28;20202;-74
2021/08/20 12:28:51;;;;;;;20.23;2.90;;;;;;;;;;4811218;28;20194;-76
2021/08/20 12:31:14;;;;;;;12.40;1.97;;;;;;;;;;4807323;28;20213;-81
2021/08/20 12:33:57;;;;;;;13.10;2.07;;;29.20;48.30;;;;;;4808432;28;20285;-76
2021/08/20 12:36:21;;;;;;;15.57;2.37;;;28.90;48.30;;;;;;4806596;28;20207;-74
2021/08/20 12:38:44;;;;;;;13.87;2.13;;;;;;;;;;4809049;28;20194;-80
2021/08/20 12:41:07;;;;;;;13.93;2.17;;;;;;;;;;4806515;28;20198;-78
2021/08/20 12:43:35;;;;;;;18.30;2.80;;;28.50;47.90;;;;;;4808153;28;20574;-89
2021/08/20 12:46:11;;;;;;;18.47;2.90;;;28.30;47.90;;;;;;4815333;28;20685;-81
2021/08/20 12:48:34;;;;;;;15.57;2.37;;;;;;;;;;4797433;28;20283;-74
2021/08/20 12:51:02;;;;;;;11.73;1.77;;;27.70;47.80;;;;;;4810127;28;20276;-84
2021/08/20 12:53:29;;;;;;;14.27;2.23;;;27.30;47.60;;;;;;4811565;28;21030;-75
2021/08/20 12:55:52;;;;;;;17.63;2.63;;;;;;;;;;4805934;28;20559;-78
2021/08/20 12:58:15;;;;;;;12.93;2.07;;;;;;;;;;4784641;28;20215;-85
2021/08/20 13:00:40;;;;;;;65.73;10.13;;;28.40;48.00;;;;;;4808913;28;20187;-85
2021/08/20 13:03:06;;;;;;;22.33;3.43;;;29.80;48.30;;;;;;4793896;28;20244;-84
2021/08/20 13:05:29;;;;;;;13.60;2.10;;;;;;;;;;4803313;28;20284;-89
2021/08/20 13:07:53;;;;;;;15.63;2.40;;;32.90;49.60;;;;;;4814933;28;20194;-75
2021/08/20 13:10:16;;;;;;;11.80;1.87;;;;;;;;;;4814953;28;20265;-78
2021/08/20 13:12:39;;;;;;;14.32;2.28;;;;;;;;;;4828961;28;20254;-80
2021/08/20 13:15:01;;;;;;;18.17;2.78;;;;;;;;;;4826871;28;20249;-83
2021/08/20 13:17:24;;;;;;;16.48;2.53;;;;;;;;;;4834444;28;20599;-75
2021/08/20 13:19:47;;;;;;;15.68;2.30;;;;;;;;;;4802759;28;20199;-85
2021/08/20 13:22:12;;;;;;;14.88;2.28;;;;;;;;;;4802514;28;20200;-75
2021/08/20 13:24:35;;;;;;;13.65;2.15;;;36.10;50.10;;;;;;4810567;28;20632;-81
2021/08/20 13:26:58;;;;;;;18.70;2.88;;;;;;;;;;4822063;28;20218;-79
2021/08/20 13:29:21;;;;;;;20.05;3.20;;;;;;;;;;4791665;28;20203;-75
2021/08/20 13:31:44;;;;;;;10.90;1.73;;;;;;;;;;4818360;28;20214;-76
2021/08/20 13:34:07;;;;;;;9.25;1.50;;;;;;;;;;4804957;28;20247;-77
2021/08/20 13:36:30;;;;;;;5.72;0.95;;;;;;;;;;4808995;28;20629;-74
2021/08/20 13:38:52;;;;;;;18.98;2.90;;;33.70;48.90;;;;;;4827970;28;20244;-82